createdAt,value
2019-02-27T00:00:43.949Z,45.90
2019-02-27T00:01:42.220Z,46.10
2019-02-27T00:02:42.184Z,45.60
2019-02-27T00:03:42.146Z,45.40
2019-02-27T00:04:42.128Z,45.20
2019-02-27T00:05:42.411Z,46.50
2019-02-27T00:06:42.109Z,45.90
2019-02-27T00:07:42.109Z,46.30
2019-02-27T00:08:42.081Z,46.40
2019-02-27T00:09:42.072Z,46.50
2019-02-27T00:10:42.065Z,46.30
2019-02-27T00:11:45.855Z,47.90
2019-02-27T00:12:42.049Z,48.50
2019-02-27T00:13:42.033Z,50.20
2019-02-27T00:14:42.055Z,50.90
2019-02-27T00:15:42.007Z,50.80
2019-02-27T00:16:44.627Z,51.80
2019-02-27T00:17:41.983Z,49.20
2019-02-27T00:18:41.977Z,51.10
2019-02-27T00:19:41.967Z,52.30
2019-02-27T00:20:41.965Z,52.10
2019-02-27T00:21:43.640Z,51.10
2019-02-27T00:22:41.993Z,51.00
2019-02-27T00:23:41.920Z,51.00
2019-02-27T00:24:41.932Z,51.00
2019-02-27T00:25:41.902Z,52.80
2019-02-27T00:26:42.471Z,49.90
2019-02-27T00:27:41.880Z,49.30
2019-02-27T00:28:41.908Z,49.60
2019-02-27T00:29:41.852Z,50.60
2019-02-27T00:30:41.843Z,49.20
2019-02-27T00:31:45.315Z,50.10
2019-02-27T00:32:41.820Z,50.60
2019-02-27T00:33:41.819Z,50.40
2019-02-27T00:34:41.818Z,50.40
2019-02-27T00:35:41.794Z,51.30
2019-02-27T00:36:44.796Z,51.40
2019-02-27T00:37:41.772Z,51.40
2019-02-27T00:38:41.788Z,50.70
2019-02-27T00:39:41.751Z,49.50
2019-02-27T00:40:41.739Z,49.90
2019-02-27T00:41:43.067Z,50.30
2019-02-27T00:42:41.723Z,49.40
2019-02-27T00:43:41.732Z,49.00
2019-02-27T00:44:41.689Z,49.60
2019-02-27T00:45:41.685Z,49.10
2019-02-27T00:46:43.985Z,51.00
2019-02-27T00:47:41.655Z,47.60
2019-02-27T00:48:41.687Z,47.70
2019-02-27T00:49:41.637Z,48.30
2019-02-27T00:50:41.625Z,50.60
2019-02-27T00:51:44.660Z,49.40
2019-02-27T00:52:41.606Z,49.10
2019-02-27T00:53:41.597Z,49.20
2019-02-27T00:54:41.626Z,50.00
2019-02-27T00:55:41.601Z,49.10
2019-02-27T00:56:44.815Z,49.20
2019-02-27T00:57:41.552Z,49.50
2019-02-27T00:58:41.541Z,49.30
2019-02-27T00:59:41.558Z,48.90
2019-02-27T01:00:41.529Z,49.20
2019-02-27T01:01:41.512Z,48.60
2019-02-27T01:02:41.495Z,50.10
2019-02-27T01:03:41.486Z,48.70
2019-02-27T01:04:41.558Z,50.10
2019-02-27T01:05:41.728Z,50.10
2019-02-27T01:06:41.453Z,49.80
2019-02-27T01:07:41.443Z,50.20
2019-02-27T01:08:41.427Z,48.10
2019-02-27T01:09:41.420Z,49.70
2019-02-27T01:10:45.041Z,49.40
2019-02-27T01:11:41.398Z,50.00
2019-02-27T01:12:41.383Z,49.90
2019-02-27T01:13:41.373Z,48.60
2019-02-27T01:14:41.362Z,48.70
2019-02-27T01:15:41.775Z,48.70
2019-02-27T01:16:41.344Z,49.40
2019-02-27T01:17:41.327Z,49.90
2019-02-27T01:18:41.316Z,50.20
2019-02-27T01:19:42.902Z,48.70
2019-02-27T01:20:45.664Z,49.40
2019-02-27T01:21:42.283Z,49.30
2019-02-27T01:22:41.275Z,48.40
2019-02-27T01:23:43.881Z,49.50
2019-02-27T01:24:41.255Z,48.40
2019-02-27T01:25:41.239Z,49.20
2019-02-27T01:26:41.245Z,49.60
2019-02-27T01:27:41.227Z,50.10
2019-02-27T01:28:44.674Z,50.50
2019-02-27T01:29:41.211Z,49.60
2019-02-27T01:30:41.196Z,51.20
2019-02-27T01:31:41.219Z,51.60
2019-02-27T01:32:41.188Z,50.00
2019-02-27T01:33:41.156Z,49.80
2019-02-27T01:34:44.181Z,49.70
2019-02-27T01:35:41.128Z,50.50
2019-02-27T01:36:41.142Z,50.20
2019-02-27T01:37:41.140Z,50.10
2019-02-27T01:38:41.102Z,48.80
2019-02-27T01:39:41.848Z,49.40
2019-02-27T01:40:41.089Z,50.50
2019-02-27T01:41:41.067Z,48.60
2019-02-27T01:42:41.076Z,49.50
2019-02-27T01:43:41.058Z,49.60
2019-02-27T01:44:41.088Z,48.60
2019-02-27T01:45:41.025Z,49.80
2019-02-27T01:46:41.020Z,50.20
2019-02-27T01:47:41.003Z,48.20
2019-02-27T01:48:43.699Z,50.20
2019-02-27T01:49:40.991Z,50.90
2019-02-27T01:50:40.967Z,49.20
2019-02-27T01:51:40.951Z,48.40
2019-02-27T01:52:40.944Z,48.40
2019-02-27T01:53:41.264Z,51.10
2019-02-27T01:54:40.924Z,49.50
2019-02-27T01:55:40.915Z,51.20
2019-02-27T01:56:40.903Z,51.50
2019-02-27T01:57:40.892Z,49.20
2019-02-27T01:58:43.421Z,48.70
2019-02-27T01:59:40.908Z,48.90
2019-02-27T02:00:40.858Z,47.40
2019-02-27T02:01:40.846Z,49.40
2019-02-27T02:02:40.841Z,48.50
2019-02-27T02:03:40.850Z,51.00
2019-02-27T02:04:40.814Z,50.90
2019-02-27T02:05:40.805Z,49.40
2019-02-27T02:06:40.792Z,48.80
2019-02-27T02:07:40.828Z,49.00
2019-02-27T02:08:40.811Z,47.50
2019-02-27T02:09:40.753Z,48.70
2019-02-27T02:10:40.743Z,47.80
2019-02-27T02:11:41.268Z,47.70
2019-02-27T02:12:41.614Z,48.80
2019-02-27T02:13:40.717Z,48.50
2019-02-27T02:14:40.704Z,49.10
2019-02-27T02:15:40.691Z,48.60
2019-02-27T02:16:40.701Z,48.60
2019-02-27T02:17:41.057Z,48.80
2019-02-27T02:18:40.653Z,51.10
2019-02-27T02:19:40.648Z,50.70
2019-02-27T02:20:40.635Z,50.40
2019-02-27T02:21:40.655Z,47.90
2019-02-27T02:22:41.276Z,47.70
2019-02-27T02:23:40.598Z,48.60
2019-02-27T02:24:40.591Z,48.50
2019-02-27T02:25:40.581Z,47.90
2019-02-27T02:26:40.565Z,48.20
2019-02-27T02:27:41.448Z,47.90
2019-02-27T02:28:40.543Z,47.90
2019-02-27T02:29:40.536Z,46.10
2019-02-27T02:30:40.519Z,46.80
2019-02-27T02:31:41.701Z,46.40
2019-02-27T02:32:40.537Z,45.30
2019-02-27T02:33:40.500Z,45.70
2019-02-27T02:34:41.036Z,45.70
2019-02-27T02:35:40.473Z,47.10
2019-02-27T02:36:40.459Z,46.20
2019-02-27T02:37:40.467Z,46.50
2019-02-27T02:38:40.436Z,46.70
2019-02-27T02:39:40.421Z,46.40
2019-02-27T02:40:40.414Z,46.50
2019-02-27T02:41:46.798Z,46.40
2019-02-27T02:42:41.385Z,45.20
2019-02-27T02:43:41.886Z,46.80
2019-02-27T02:44:40.375Z,47.60
2019-02-27T02:45:40.362Z,47.80
2019-02-27T02:46:44.826Z,47.90
2019-02-27T02:47:40.333Z,47.80
2019-02-27T02:48:40.346Z,47.60
2019-02-27T02:49:42.617Z,46.80
2019-02-27T02:50:40.307Z,48.30
2019-02-27T02:51:40.302Z,46.70
2019-02-27T02:52:41.575Z,46.70
2019-02-27T02:53:40.309Z,47.50
2019-02-27T02:54:40.349Z,48.50
2019-02-27T02:55:40.253Z,48.30
2019-02-27T02:56:40.247Z,46.50
2019-02-27T02:57:40.234Z,47.10
2019-02-27T02:58:40.218Z,49.20
2019-02-27T02:59:40.205Z,47.90
2019-02-27T03:00:40.227Z,47.50
2019-02-27T03:01:40.186Z,48.10
2019-02-27T03:02:40.175Z,47.30
2019-02-27T03:03:40.162Z,49.00
2019-02-27T03:04:40.155Z,47.90
2019-02-27T03:05:40.171Z,48.30
2019-02-27T03:06:40.126Z,48.90
2019-02-27T03:07:44.451Z,48.70
2019-02-27T03:08:41.121Z,48.10
2019-02-27T03:09:40.105Z,48.50
2019-02-27T03:10:42.790Z,48.00
2019-02-27T03:11:40.074Z,48.20
2019-02-27T03:12:40.096Z,48.00
2019-02-27T03:13:41.885Z,48.90
2019-02-27T03:14:40.048Z,47.00
2019-02-27T03:15:40.061Z,47.20
2019-02-27T03:16:41.398Z,48.10
2019-02-27T03:17:40.009Z,46.00
2019-02-27T03:18:39.997Z,47.80
2019-02-27T03:19:41.810Z,47.00
2019-02-27T03:20:40.012Z,46.20
2019-02-27T03:21:39.996Z,47.60
2019-02-27T03:22:41.639Z,47.10
2019-02-27T03:23:39.949Z,45.70
2019-02-27T03:24:39.935Z,46.80
2019-02-27T03:25:40.702Z,46.10
2019-02-27T03:26:39.918Z,47.60
2019-02-27T03:27:39.901Z,48.00
2019-02-27T03:28:41.106Z,47.20
2019-02-27T03:29:39.885Z,47.70
2019-02-27T03:30:39.878Z,47.20
2019-02-27T03:31:39.884Z,46.70
2019-02-27T03:32:43.184Z,47.40
2019-02-27T03:33:39.836Z,47.90
2019-02-27T03:34:48.032Z,49.20
2019-02-27T03:35:40.819Z,49.00
2019-02-27T03:36:39.814Z,48.10
2019-02-27T03:37:39.839Z,48.40
2019-02-27T03:38:39.828Z,49.50
2019-02-27T03:39:39.782Z,49.30
2019-02-27T03:40:39.759Z,49.10
2019-02-27T03:41:39.755Z,50.20
2019-02-27T03:42:39.770Z,49.10
2019-02-27T03:43:45.691Z,50.50
2019-02-27T03:44:40.749Z,50.50
2019-02-27T03:45:39.716Z,50.40
2019-02-27T03:46:41.793Z,49.50
2019-02-27T03:47:39.688Z,50.10
2019-02-27T03:48:39.672Z,49.20
2019-02-27T03:49:40.790Z,49.60
2019-02-27T03:50:39.659Z,52.60
2019-02-27T03:51:39.640Z,49.60
2019-02-27T03:52:39.636Z,51.30
2019-02-27T03:53:43.241Z,50.10
2019-02-27T03:54:40.640Z,48.70
2019-02-27T03:55:39.600Z,48.80
2019-02-27T03:56:43.528Z,50.20
2019-02-27T03:57:40.580Z,49.50
2019-02-27T03:58:39.570Z,50.20
2019-02-27T03:59:42.728Z,49.80
2019-02-27T04:00:42.018Z,47.50
2019-02-27T04:01:39.532Z,49.00
2019-02-27T04:02:42.035Z,49.40
2019-02-27T04:03:39.516Z,48.30
2019-02-27T04:04:39.515Z,49.80
2019-02-27T04:05:41.929Z,49.40
2019-02-27T04:06:40.484Z,48.50
2019-02-27T04:07:39.465Z,48.90
2019-02-27T04:08:43.549Z,49.80
2019-02-27T04:09:40.454Z,50.40
2019-02-27T04:10:39.462Z,49.30
2019-02-27T04:11:42.636Z,47.50
2019-02-27T04:12:39.431Z,50.30
2019-02-27T04:13:39.405Z,48.50
2019-02-27T04:14:41.802Z,48.40
2019-02-27T04:15:39.399Z,47.60
2019-02-27T04:16:39.381Z,49.40
2019-02-27T04:17:39.360Z,49.80
2019-02-27T04:18:39.348Z,48.20
2019-02-27T04:19:40.442Z,47.90
2019-02-27T04:20:39.326Z,48.90
2019-02-27T04:21:39.338Z,47.60
2019-02-27T04:22:39.302Z,47.40
2019-02-27T04:23:39.294Z,48.10
2019-02-27T04:24:39.285Z,48.80
2019-02-27T04:25:39.276Z,48.80
2019-02-27T04:26:41.996Z,50.70
2019-02-27T04:27:39.267Z,48.10
2019-02-27T04:28:39.243Z,49.40
2019-02-27T04:29:41.079Z,47.60
2019-02-27T04:30:39.226Z,48.20
2019-02-27T04:31:39.212Z,47.40
2019-02-27T04:32:39.228Z,47.60
2019-02-27T04:33:39.190Z,45.80
2019-02-27T04:34:39.174Z,48.60
2019-02-27T04:35:39.652Z,47.40
2019-02-27T04:36:39.185Z,47.80
2019-02-27T04:37:39.149Z,46.90
2019-02-27T04:38:39.134Z,48.10
2019-02-27T04:39:39.128Z,47.90
2019-02-27T04:40:39.107Z,47.00
2019-02-27T04:41:39.145Z,48.90
2019-02-27T04:42:39.087Z,47.20
2019-02-27T04:43:39.080Z,48.10
2019-02-27T04:44:39.621Z,46.60
2019-02-27T04:45:39.053Z,48.20
2019-02-27T04:46:39.088Z,48.30
2019-02-27T04:47:39.037Z,48.90
2019-02-27T04:48:39.026Z,50.50
2019-02-27T04:49:39.017Z,47.70
2019-02-27T04:50:39.004Z,48.60
2019-02-27T04:51:39.023Z,48.10
2019-02-27T04:52:38.977Z,48.20
2019-02-27T04:53:40.721Z,46.60
2019-02-27T04:54:41.441Z,46.40
2019-02-27T04:55:38.951Z,49.20
2019-02-27T04:56:38.940Z,48.10
2019-02-27T04:57:38.957Z,46.50
2019-02-27T04:58:42.809Z,47.40
2019-02-27T04:59:38.909Z,47.90
2019-02-27T05:00:38.898Z,47.70
2019-02-27T05:01:38.886Z,46.40
2019-02-27T05:02:38.869Z,47.40
2019-02-27T05:03:38.890Z,46.60
2019-02-27T05:04:38.858Z,44.00
2019-02-27T05:05:39.111Z,46.20
2019-02-27T05:06:38.826Z,45.00
2019-02-27T05:07:38.823Z,45.60
2019-02-27T05:08:38.810Z,45.80
2019-02-27T05:09:38.807Z,45.40
2019-02-27T05:10:40.608Z,45.20
2019-02-27T05:11:38.804Z,45.10
2019-02-27T05:12:38.768Z,45.20
2019-02-27T05:13:38.756Z,45.90
2019-02-27T05:14:38.739Z,44.50
2019-02-27T05:15:39.637Z,45.30
2019-02-27T05:16:38.763Z,45.60
2019-02-27T05:17:38.712Z,44.20
2019-02-27T05:18:38.703Z,43.60
2019-02-27T05:19:38.690Z,43.40
2019-02-27T05:20:38.680Z,41.60
2019-02-27T05:21:38.754Z,40.80
2019-02-27T05:22:38.657Z,41.00
2019-02-27T05:23:38.647Z,40.80
2019-02-27T05:24:40.832Z,41.40
2019-02-27T05:25:38.648Z,40.80
2019-02-27T05:26:38.616Z,40.20
2019-02-27T05:27:38.688Z,38.90
2019-02-27T05:28:38.589Z,39.20
2019-02-27T05:29:38.582Z,39.10
2019-02-27T05:30:38.574Z,40.10
2019-02-27T05:31:38.565Z,41.40
2019-02-27T05:32:38.576Z,40.60
2019-02-27T05:33:39.913Z,39.40
2019-02-27T05:34:38.530Z,40.40
2019-02-27T05:35:38.548Z,39.20
2019-02-27T05:36:38.505Z,38.80
2019-02-27T05:37:39.327Z,38.40
2019-02-27T05:38:40.986Z,38.10
2019-02-27T05:39:39.473Z,39.20
2019-02-27T05:40:38.598Z,40.00
2019-02-27T05:41:38.476Z,38.90
2019-02-27T05:42:38.972Z,37.30
2019-02-27T05:43:38.428Z,38.70
2019-02-27T05:44:38.425Z,38.70
2019-02-27T05:45:38.406Z,38.80
2019-02-27T05:46:39.069Z,37.00
2019-02-27T05:47:38.392Z,39.40
2019-02-27T05:48:38.398Z,38.80
2019-02-27T05:49:38.371Z,37.40
2019-02-27T05:50:38.352Z,37.80
2019-02-27T05:51:38.347Z,37.90
2019-02-27T05:52:38.395Z,37.60
2019-02-27T05:53:38.338Z,37.60
2019-02-27T05:54:38.312Z,36.90
2019-02-27T05:55:39.195Z,37.10
2019-02-27T05:56:38.288Z,35.80
2019-02-27T05:57:39.159Z,36.60
2019-02-27T05:58:38.290Z,36.00
2019-02-27T05:59:38.267Z,35.30
2019-02-27T06:00:38.245Z,36.70
2019-02-27T06:01:38.765Z,35.60
2019-02-27T06:02:38.221Z,34.50
2019-02-27T06:03:38.261Z,35.00
2019-02-27T06:04:38.202Z,34.00
2019-02-27T06:05:38.191Z,33.70
2019-02-27T06:06:38.180Z,34.40
2019-02-27T06:07:38.174Z,33.80
2019-02-27T06:08:38.228Z,32.90
2019-02-27T06:09:38.153Z,34.10
2019-02-27T06:10:38.163Z,32.80
2019-02-27T06:11:38.126Z,33.30
2019-02-27T06:12:40.761Z,33.40
2019-02-27T06:13:38.106Z,33.30
2019-02-27T06:14:38.089Z,31.80
2019-02-27T06:15:38.141Z,32.00
2019-02-27T06:16:40.692Z,32.10
2019-02-27T06:17:43.281Z,30.80
2019-02-27T06:18:39.045Z,30.80
2019-02-27T06:19:38.042Z,41.40
2019-02-27T06:20:38.980Z,29.20
2019-02-27T06:21:38.887Z,32.00
2019-02-27T06:22:38.008Z,30.80
2019-02-27T06:23:38.493Z,30.70
2019-02-27T06:24:37.997Z,31.70
2019-02-27T06:25:37.977Z,30.80
2019-02-27T06:26:37.992Z,30.00
2019-02-27T06:27:39.431Z,31.10
2019-02-27T06:28:37.938Z,30.40
2019-02-27T06:29:37.943Z,30.20
2019-02-27T06:30:37.927Z,30.30
2019-02-27T06:31:39.504Z,29.90
2019-02-27T06:32:37.896Z,30.50
2019-02-27T06:33:37.890Z,31.60
2019-02-27T06:34:37.878Z,30.30
2019-02-27T06:35:37.871Z,31.20
2019-02-27T06:36:41.829Z,29.50
2019-02-27T06:37:37.845Z,31.00
2019-02-27T06:38:37.829Z,29.90
2019-02-27T06:39:37.824Z,29.90
2019-02-27T06:40:42.105Z,29.70
2019-02-27T06:41:39.948Z,29.40
2019-02-27T06:42:37.790Z,28.70
2019-02-27T06:43:37.786Z,30.40
2019-02-27T06:44:39.265Z,29.20
2019-02-27T06:45:37.754Z,29.50
2019-02-27T06:46:37.748Z,29.40
2019-02-27T06:47:38.680Z,32.00
2019-02-27T06:48:37.721Z,31.00
2019-02-27T06:49:37.719Z,29.40
2019-02-27T06:50:37.700Z,28.60
2019-02-27T06:51:37.721Z,29.00
2019-02-27T06:52:40.160Z,28.30
2019-02-27T06:53:37.673Z,29.10
2019-02-27T06:54:37.862Z,28.00
2019-02-27T06:55:37.656Z,29.00
2019-02-27T06:56:37.640Z,29.30
2019-02-27T06:57:40.914Z,27.60
2019-02-27T06:58:37.647Z,29.60
2019-02-27T06:59:37.608Z,27.90
2019-02-27T07:00:37.598Z,27.50
2019-02-27T07:01:37.582Z,27.70
2019-02-27T07:02:37.577Z,28.30
2019-02-27T07:03:37.612Z,29.20
2019-02-27T07:04:39.501Z,27.60
2019-02-27T07:05:37.545Z,28.40
2019-02-27T07:06:37.533Z,27.70
2019-02-27T07:07:37.518Z,28.40
2019-02-27T07:08:38.155Z,29.10
2019-02-27T07:09:37.530Z,28.90
2019-02-27T07:10:37.491Z,27.80
2019-02-27T07:11:37.478Z,27.30
2019-02-27T07:12:37.463Z,28.70
2019-02-27T07:13:37.458Z,27.40
2019-02-27T07:14:39.111Z,26.70
2019-02-27T07:15:37.445Z,27.90
2019-02-27T07:16:37.431Z,28.00
2019-02-27T07:17:37.407Z,27.30
2019-02-27T07:18:41.546Z,28.10
2019-02-27T07:19:37.386Z,26.50
2019-02-27T07:20:37.390Z,27.40
2019-02-27T07:21:37.392Z,26.80
2019-02-27T07:22:37.362Z,25.40
2019-02-27T07:23:37.344Z,26.80
2019-02-27T07:24:37.337Z,25.00
2019-02-27T07:25:41.957Z,27.00
2019-02-27T07:26:38.308Z,25.60
2019-02-27T07:27:37.304Z,26.60
2019-02-27T07:28:37.292Z,25.10
2019-02-27T07:29:37.283Z,25.90
2019-02-27T07:30:39.798Z,24.60
2019-02-27T07:31:38.297Z,26.90
2019-02-27T07:32:37.246Z,26.10
2019-02-27T07:33:37.994Z,26.80
2019-02-27T07:34:37.225Z,26.80
2019-02-27T07:35:37.215Z,26.30
2019-02-27T07:36:38.571Z,25.90
2019-02-27T07:37:37.206Z,25.50
2019-02-27T07:38:37.182Z,26.50
2019-02-27T07:39:37.171Z,26.30
2019-02-27T07:40:37.164Z,26.70
2019-02-27T07:41:37.161Z,26.30
2019-02-27T07:42:37.143Z,26.10
2019-02-27T07:43:37.156Z,26.40
2019-02-27T07:44:37.118Z,25.90
2019-02-27T07:45:37.121Z,26.20
2019-02-27T07:46:37.099Z,26.70
2019-02-27T07:47:37.083Z,26.00
2019-02-27T07:48:37.075Z,26.00
2019-02-27T07:49:37.068Z,25.80
2019-02-27T07:50:37.062Z,26.40
2019-02-27T07:51:37.046Z,26.60
2019-02-27T07:52:37.038Z,26.90
2019-02-27T07:53:37.030Z,26.20
2019-02-27T07:54:37.010Z,25.40
2019-02-27T07:55:37.001Z,25.70
2019-02-27T07:56:36.992Z,26.40
2019-02-27T07:57:36.976Z,25.80
2019-02-27T07:58:36.972Z,25.60
2019-02-27T07:59:38.123Z,24.90
2019-02-27T08:00:36.946Z,25.30
2019-02-27T08:01:43.436Z,23.80
2019-02-27T08:02:37.925Z,24.30
2019-02-27T08:03:36.905Z,23.80
2019-02-27T08:04:36.899Z,23.70
2019-02-27T08:05:36.883Z,23.70
2019-02-27T08:06:37.733Z,23.60
2019-02-27T08:07:36.906Z,25.30
2019-02-27T08:08:36.885Z,23.40
2019-02-27T08:09:36.844Z,24.60
2019-02-27T08:10:37.493Z,24.60
2019-02-27T08:11:36.851Z,22.50
2019-02-27T08:12:36.812Z,22.90
2019-02-27T08:13:36.801Z,23.60
2019-02-27T08:14:37.762Z,24.30
2019-02-27T08:15:36.773Z,23.10
2019-02-27T08:16:37.062Z,23.70
2019-02-27T08:17:36.752Z,23.90
2019-02-27T08:18:38.174Z,23.90
2019-02-27T08:19:36.897Z,23.10
2019-02-27T08:20:36.734Z,23.20
2019-02-27T08:21:36.718Z,23.00
2019-02-27T08:22:36.706Z,22.60
2019-02-27T08:23:36.691Z,23.20
2019-02-27T08:24:36.710Z,23.20
2019-02-27T08:25:36.702Z,22.60
2019-02-27T08:26:37.056Z,22.60
2019-02-27T08:27:36.647Z,24.30
2019-02-27T08:28:36.640Z,26.10
2019-02-27T08:29:36.628Z,23.90
2019-02-27T08:30:36.618Z,23.10
2019-02-27T08:31:36.608Z,24.00
2019-02-27T08:32:36.590Z,23.60
2019-02-27T08:33:36.582Z,22.50
2019-02-27T08:34:36.570Z,23.20
2019-02-27T08:35:36.593Z,23.30
2019-02-27T08:36:36.598Z,23.80
2019-02-27T08:37:36.538Z,22.90
2019-02-27T08:38:36.530Z,22.10
2019-02-27T08:39:36.514Z,23.60
2019-02-27T08:40:36.500Z,23.10
2019-02-27T08:41:36.489Z,24.30
2019-02-27T08:42:39.640Z,23.50
2019-02-27T08:43:36.473Z,22.40
2019-02-27T08:44:36.463Z,23.10
2019-02-27T08:45:36.450Z,23.10
2019-02-27T08:46:36.998Z,23.20
2019-02-27T08:47:36.440Z,22.70
2019-02-27T08:48:36.420Z,23.50
2019-02-27T08:49:36.413Z,23.20
2019-02-27T08:50:36.399Z,23.00
2019-02-27T08:51:36.387Z,23.60
2019-02-27T08:52:36.416Z,22.30
2019-02-27T08:53:36.360Z,23.10
2019-02-27T08:54:36.348Z,23.70
2019-02-27T08:55:39.038Z,24.00
2019-02-27T08:56:36.330Z,23.80
2019-02-27T08:57:36.321Z,23.30
2019-02-27T08:58:36.319Z,23.40
2019-02-27T08:59:36.993Z,23.20
2019-02-27T09:00:36.287Z,22.60
2019-02-27T09:01:37.761Z,23.30
2019-02-27T09:02:36.259Z,23.00
2019-02-27T09:03:37.004Z,23.40
2019-02-27T09:04:36.243Z,24.00
2019-02-27T09:05:36.235Z,23.80
2019-02-27T09:06:36.215Z,23.70
2019-02-27T09:07:36.451Z,22.20
2019-02-27T09:08:36.206Z,25.70
2019-02-27T09:09:36.325Z,23.20
2019-02-27T09:10:36.188Z,24.00
2019-02-27T09:11:39.658Z,24.70
2019-02-27T09:12:36.156Z,23.50
2019-02-27T09:13:36.138Z,22.70
2019-02-27T09:14:36.138Z,23.30
2019-02-27T09:15:36.158Z,23.60
2019-02-27T09:16:36.111Z,25.10
2019-02-27T09:17:36.105Z,24.50
2019-02-27T09:18:36.750Z,23.30
2019-02-27T09:19:36.080Z,23.60
2019-02-27T09:20:36.064Z,23.40
2019-02-27T09:21:36.097Z,25.00
2019-02-27T09:22:36.785Z,24.30
2019-02-27T09:23:36.029Z,23.70
2019-02-27T09:24:36.024Z,23.50
2019-02-27T09:25:36.009Z,23.90
2019-02-27T09:26:36.786Z,23.30
2019-02-27T09:27:36.032Z,23.50
2019-02-27T09:28:35.973Z,23.70
2019-02-27T09:29:35.968Z,24.20
2019-02-27T09:30:35.956Z,24.70
2019-02-27T09:31:37.691Z,24.10
2019-02-27T09:32:35.942Z,24.30
2019-02-27T09:33:38.839Z,24.00
2019-02-27T09:34:35.909Z,23.60
2019-02-27T09:35:38.608Z,23.80
2019-02-27T09:36:35.895Z,24.60
2019-02-27T09:37:35.914Z,24.20
2019-02-27T09:38:35.870Z,24.20
2019-02-27T09:39:35.854Z,23.30
2019-02-27T09:40:38.636Z,22.40
2019-02-27T09:41:35.838Z,22.50
2019-02-27T09:42:35.860Z,22.00
2019-02-27T09:43:35.932Z,22.60
2019-02-27T09:44:36.598Z,22.50
2019-02-27T09:45:35.801Z,22.30
2019-02-27T09:46:35.836Z,22.20
2019-02-27T09:47:35.767Z,22.60
2019-02-27T09:48:35.767Z,22.50
2019-02-27T09:49:37.996Z,22.10
2019-02-27T09:50:35.733Z,21.40
2019-02-27T09:51:35.730Z,21.50
2019-02-27T09:52:35.717Z,25.50
2019-02-27T09:53:36.813Z,21.40
2019-02-27T09:54:35.693Z,20.20
2019-02-27T09:55:35.679Z,21.00
2019-02-27T09:56:35.679Z,20.80
2019-02-27T09:57:36.722Z,20.90
2019-02-27T09:58:36.070Z,21.40
2019-02-27T09:59:35.634Z,20.90
2019-02-27T10:00:35.623Z,20.50
2019-02-27T10:01:35.618Z,19.60
2019-02-27T10:02:35.602Z,20.50
2019-02-27T10:03:35.596Z,20.50
2019-02-27T10:04:35.617Z,22.20
2019-02-27T10:05:36.681Z,21.80
2019-02-27T10:06:35.563Z,21.30
2019-02-27T10:07:35.547Z,19.90
2019-02-27T10:08:35.541Z,20.80
2019-02-27T10:09:35.524Z,20.40
2019-02-27T10:10:35.525Z,20.70
2019-02-27T10:11:35.518Z,20.30
2019-02-27T10:12:35.491Z,19.70
2019-02-27T10:13:37.948Z,19.10
2019-02-27T10:14:35.474Z,19.00
2019-02-27T10:15:35.479Z,20.70
2019-02-27T10:16:35.453Z,19.60
2019-02-27T10:17:35.437Z,19.50
2019-02-27T10:18:35.440Z,19.90
2019-02-27T10:19:35.415Z,20.80
2019-02-27T10:20:37.304Z,19.00
2019-02-27T10:21:35.409Z,19.40
2019-02-27T10:22:35.390Z,19.20
2019-02-27T10:23:35.372Z,19.20
2019-02-27T10:24:36.914Z,19.80
2019-02-27T10:25:35.364Z,20.50
2019-02-27T10:26:35.339Z,18.80
2019-02-27T10:27:35.331Z,18.70
2019-02-27T10:28:38.885Z,19.20
2019-02-27T10:29:35.313Z,18.80
2019-02-27T10:30:35.306Z,20.20
2019-02-27T10:31:35.295Z,20.60
2019-02-27T10:32:36.707Z,19.80
2019-02-27T10:33:35.275Z,19.70
2019-02-27T10:34:36.279Z,19.90
2019-02-27T10:35:35.251Z,18.80
2019-02-27T10:36:38.241Z,19.60
2019-02-27T10:37:35.326Z,19.10
2019-02-27T10:38:40.276Z,19.00
2019-02-27T10:39:37.159Z,18.30
2019-02-27T10:40:35.195Z,18.50
2019-02-27T10:41:35.183Z,17.60
2019-02-27T10:42:35.171Z,18.40
2019-02-27T10:43:35.179Z,18.90
2019-02-27T10:44:35.170Z,18.40
2019-02-27T10:45:35.173Z,18.00
2019-02-27T10:46:35.134Z,18.50
2019-02-27T10:47:36.518Z,18.00
2019-02-27T10:48:36.784Z,17.80
2019-02-27T10:49:35.131Z,18.10
2019-02-27T10:50:36.110Z,18.30
2019-02-27T10:51:35.067Z,19.30
2019-02-27T10:52:35.056Z,18.70
2019-02-27T10:53:35.046Z,18.60
2019-02-27T10:54:37.084Z,18.20
2019-02-27T10:55:35.044Z,18.20
2019-02-27T10:56:35.078Z,17.70
2019-02-27T10:57:38.382Z,17.60
2019-02-27T10:58:35.000Z,18.00
2019-02-27T10:59:34.981Z,17.70
2019-02-27T11:00:34.991Z,17.00
2019-02-27T11:01:36.344Z,17.40
2019-02-27T11:02:34.956Z,15.70
2019-02-27T11:03:34.948Z,15.90
2019-02-27T11:04:36.311Z,16.70
2019-02-27T11:05:34.931Z,17.00
2019-02-27T11:06:37.750Z,17.50
2019-02-27T11:07:34.899Z,17.30
2019-02-27T11:08:34.891Z,16.90
2019-02-27T11:09:34.878Z,17.50
2019-02-27T11:10:34.944Z,17.00
2019-02-27T11:11:34.859Z,18.20
2019-02-27T11:12:34.840Z,16.80
2019-02-27T11:13:34.835Z,17.80
2019-02-27T11:14:34.822Z,17.70
2019-02-27T11:15:34.815Z,17.50
2019-02-27T11:16:34.809Z,17.50
2019-02-27T11:17:34.791Z,17.00
2019-02-27T11:18:34.777Z,17.60
2019-02-27T11:19:35.034Z,17.20
2019-02-27T11:20:34.792Z,16.10
2019-02-27T11:21:34.757Z,16.30
2019-02-27T11:22:34.735Z,17.20
2019-02-27T11:23:34.742Z,16.10
2019-02-27T11:24:34.760Z,18.30
2019-02-27T11:25:34.708Z,16.80
2019-02-27T11:26:34.692Z,16.20
2019-02-27T11:27:36.366Z,16.40
2019-02-27T11:28:34.729Z,15.40
2019-02-27T11:29:34.658Z,16.70
2019-02-27T11:30:36.841Z,15.60
2019-02-27T11:31:34.633Z,16.20
2019-02-27T11:32:34.629Z,16.80
2019-02-27T11:33:34.609Z,16.30
2019-02-27T11:34:34.617Z,16.80
2019-02-27T11:35:34.588Z,17.10
2019-02-27T11:36:35.013Z,16.80
2019-02-27T11:37:34.570Z,15.90
2019-02-27T11:38:34.563Z,15.80
2019-02-27T11:39:34.583Z,17.80
2019-02-27T11:40:34.543Z,16.50
2019-02-27T11:41:34.527Z,16.50
2019-02-27T11:42:34.517Z,16.50
2019-02-27T11:43:34.502Z,17.00
2019-02-27T11:44:34.532Z,16.60
2019-02-27T11:45:34.495Z,17.70
2019-02-27T11:46:35.121Z,18.90
2019-02-27T11:47:34.471Z,17.20
2019-02-27T11:48:34.448Z,16.10
2019-02-27T11:49:38.434Z,17.20
2019-02-27T11:50:34.430Z,20.20
2019-02-27T11:51:34.450Z,18.30
2019-02-27T11:52:34.420Z,20.50
2019-02-27T11:53:36.009Z,22.40
2019-02-27T11:54:34.393Z,20.60
2019-02-27T11:55:34.411Z,18.90
2019-02-27T11:56:34.360Z,18.40
2019-02-27T11:57:34.349Z,17.00
2019-02-27T11:58:35.252Z,17.20
2019-02-27T11:59:34.332Z,17.70
2019-02-27T12:00:34.318Z,16.40
2019-02-27T12:01:34.320Z,16.60
2019-02-27T12:02:37.851Z,15.70
2019-02-27T12:03:34.335Z,16.40
2019-02-27T12:04:34.289Z,15.60
2019-02-27T12:05:34.588Z,16.80
2019-02-27T12:06:34.256Z,16.30
2019-02-27T12:07:34.267Z,15.10
2019-02-27T12:08:34.228Z,15.40
2019-02-27T12:09:35.173Z,14.60
2019-02-27T12:10:34.208Z,14.30
2019-02-27T12:11:34.199Z,16.20
2019-02-27T12:12:34.187Z,14.70
2019-02-27T12:13:34.920Z,14.60
2019-02-27T12:14:34.173Z,15.60
2019-02-27T12:15:34.204Z,14.40
2019-02-27T12:16:34.154Z,15.10
2019-02-27T12:17:34.172Z,15.10
2019-02-27T12:18:34.549Z,15.70
2019-02-27T12:19:34.206Z,14.90
2019-02-27T12:20:34.101Z,16.80
2019-02-27T12:21:34.086Z,14.60
2019-02-27T12:22:35.273Z,14.60
2019-02-27T12:23:34.187Z,14.10
2019-02-27T12:24:34.058Z,13.10
2019-02-27T12:25:34.051Z,13.20
2019-02-27T12:26:34.440Z,12.70
2019-02-27T12:27:48.629Z,13.30
2019-02-27T12:28:35.009Z,13.90
2019-02-27T12:29:33.999Z,14.30
2019-02-27T12:30:37.199Z,16.00
2019-02-27T12:31:33.978Z,15.00
2019-02-27T12:32:33.968Z,15.20
2019-02-27T12:33:34.494Z,16.00
2019-02-27T12:34:36.919Z,15.50
2019-02-27T12:35:33.940Z,16.60
2019-02-27T12:36:33.971Z,15.90
2019-02-27T12:37:34.740Z,16.00
2019-02-27T12:38:33.906Z,16.90
2019-02-27T12:39:33.903Z,16.20
2019-02-27T12:40:33.883Z,16.40
2019-02-27T12:41:33.870Z,15.30
2019-02-27T12:42:37.385Z,15.30
2019-02-27T12:43:33.846Z,15.10
2019-02-27T12:44:34.539Z,15.10
2019-02-27T12:45:33.868Z,15.40
2019-02-27T12:46:34.215Z,15.70
2019-02-27T12:47:33.809Z,13.60
2019-02-27T12:48:33.831Z,14.40
2019-02-27T12:49:33.788Z,14.60
2019-02-27T12:50:33.778Z,13.80
2019-02-27T12:51:35.248Z,14.40
2019-02-27T12:52:33.750Z,13.90